Gloucester, MA (01930)

8:37 AM EDT on April 30, 2017 (GMT -0400)
Thurston Point | | Change Station

Elev 65 ft 42.64 °N, 70.68 °W | Updated 10 seconds ago

Clear
Clear
47.3 °F
Feels Like 46 °F
N
3.5
Wind Variable Wind from East
Gusts 8.0 mph

Today
High -- | Low -- °F
--% Chance of Precip.
Yesterday
High -- | Low -- °F
Precip. -- in
Pressure 30.27 in
Visibility 10.0 miles
Clouds Clear
Windchill 46 °F
Dew Point 31 °F
Humidity 52%
Rainfall 0.00 in
Snow Depth Not available.
5:38 AM 7:42 PM
Waxing Crescent, 22% visible
METAR KBVY 301153Z 36004KT 10SM CLR 10/M02 A3028 RMK AO2 SLP250 T01001017 10156 20089 51036
Pressure 30.27 in
Visibility 10.0 miles
Clouds Clear
Windchill 46 °F
Dew Point 31 °F
Humidity 52%
Rainfall 0.00 in
Snow Depth Not available.
5:38 AM 7:42 PM
Waxing Crescent, 22% visible
METAR KBVY 301153Z 36004KT 10SM CLR 10/M02 A3028 RMK AO2 SLP250 T01001017 10156 20089 51036

Get Severe Weather Alerts

Thanks for signing up!

Be on the lookout for a verification email in your inbox.

You'll start receiving the daily forecast at 8 AM.

×

10-Day Weather Forecast

Almanac

Astronomy

Apr. 30, 2017 Rise Set
Actual Time
Civil Twilight
Nautical Twilight
Astronomical Twilight
Moon
Length of Visible Light
Length of Day
Tomorrow will be .
, % of the Moon is Illuminated

Today's Extremes

State Highs State Lows

Community

WunderPhotos

WunderBlog® & News

Nearby

Air Quality

  Air Quality AQ Index Pollutant
Not available.

Snow Depth

Station Depth Elevation

Earthquake Activity

City Distance Mag. Time & Date
Minimum magnitude displayed is 2.5.

Coastal Water Temperatures

Place Temperature

Stations

Nearby Weather Stations

Station Location Temp. Windchill Dew Point Humidity Wind Precip. Elev Updated Type
                   

Watches & Warnings

There are currently no watches in effect.